createdAt,value
2023-12-11T00:01:48.056Z,-0.42
2023-12-11T00:04:52.745Z,-0.48
2023-12-11T00:07:57.981Z,-0.62
2023-12-11T00:11:04.060Z,-0.66
2023-12-11T00:14:08.605Z,-0.60
2023-12-11T00:17:12.342Z,-0.56
2023-12-11T00:20:18.302Z,-0.70
2023-12-11T00:23:25.638Z,-0.55
2023-12-11T00:27:08.661Z,-0.30
2023-12-11T00:30:13.469Z,-0.44
2023-12-11T00:33:19.354Z,-0.53
2023-12-11T00:36:22.771Z,-0.54
2023-12-11T00:39:29.206Z,-0.53
2023-12-11T00:42:33.027Z,-0.51
2023-12-11T00:45:36.106Z,-0.42
2023-12-11T00:48:44.821Z,-0.51
2023-12-11T00:51:54.645Z,-0.38
2023-12-11T00:54:58.365Z,-0.49
2023-12-11T00:58:02.343Z,-0.44
2023-12-11T01:01:06.407Z,-0.56
2023-12-11T01:04:10.119Z,-0.49
2023-12-11T01:07:13.539Z,-0.66
2023-12-11T01:10:16.679Z,-0.73
2023-12-11T01:13:24.107Z,-0.82
2023-12-11T01:16:28.655Z,-0.61
2023-12-11T01:19:32.827Z,-0.61
2023-12-11T01:22:38.808Z,-0.60
2023-12-11T01:26:18.059Z,-0.75
2023-12-11T01:33:40.564Z,-0.85
2023-12-11T01:36:44.947Z,-0.89
2023-12-11T01:39:48.329Z,-0.91
2023-12-11T01:43:04.272Z,-0.95
2023-12-11T01:46:19.719Z,-0.85
2023-12-11T01:49:28.605Z,-0.83
2023-12-11T01:53:04.675Z,-0.84
2023-12-11T01:56:09.875Z,-1.00
2023-12-11T01:59:15.022Z,-0.99
2023-12-11T02:02:21.527Z,-1.08
2023-12-11T02:05:25.570Z,-1.16
2023-12-11T02:08:32.975Z,-1.01
2023-12-11T02:11:36.754Z,-1.09
2023-12-11T02:14:40.615Z,-1.01
2023-12-11T02:17:44.485Z,-1.13
2023-12-11T02:20:52.184Z,-1.05
2023-12-11T02:24:03.334Z,-1.09
2023-12-11T02:27:10.979Z,-1.22
2023-12-11T02:30:15.090Z,-1.09
2023-12-11T02:33:20.176Z,-1.10
2023-12-11T02:36:24.853Z,-1.25
2023-12-11T02:39:28.046Z,-1.19
2023-12-11T02:42:34.669Z,-1.10
2023-12-11T02:45:40.640Z,-0.92
2023-12-11T02:48:43.955Z,-0.93
2023-12-11T02:51:47.048Z,-0.86
2023-12-11T02:54:57.918Z,-0.81
2023-12-11T02:58:04.358Z,-0.90
2023-12-11T03:01:08.060Z,-0.91
2023-12-11T03:04:12.960Z,-0.90
2023-12-11T03:07:21.695Z,-0.82
2023-12-11T03:10:25.008Z,-0.87
2023-12-11T03:13:29.070Z,-0.87
2023-12-11T03:16:32.479Z,-0.75
2023-12-11T03:19:36.181Z,-0.84
2023-12-11T03:22:41.567Z,-0.64
2023-12-11T03:25:45.100Z,-0.72
2023-12-11T03:28:48.598Z,-0.74
2023-12-11T03:31:53.907Z,-0.75
2023-12-11T03:34:56.914Z,-0.52
2023-12-11T03:38:03.643Z,-0.57
2023-12-11T03:41:10.948Z,-0.71
2023-12-11T03:44:15.275Z,-0.69
2023-12-11T03:47:25.757Z,-0.73
2023-12-11T03:50:33.014Z,-0.75
2023-12-11T03:53:37.311Z,-0.75
2023-12-11T03:57:15.986Z,-0.78
2023-12-11T04:00:39.635Z,-0.64
2023-12-11T04:03:50.258Z,-0.63
2023-12-11T04:06:53.783Z,-0.70
2023-12-11T04:09:57.875Z,-0.71
2023-12-11T04:13:02.805Z,-0.70
2023-12-11T04:16:12.193Z,-0.71
2023-12-11T04:19:15.698Z,-0.63
2023-12-11T04:22:22.291Z,-0.57
2023-12-11T04:25:25.127Z,-0.58
2023-12-11T04:28:29.455Z,-0.42
2023-12-11T04:31:35.201Z,-0.38
2023-12-11T04:34:39.350Z,-0.32
2023-12-11T04:37:42.518Z,-0.48
2023-12-11T04:40:53.500Z,-0.35
2023-12-11T04:44:00.918Z,-0.43
2023-12-11T04:47:07.164Z,-0.32
2023-12-11T04:50:14.376Z,-0.45
2023-12-11T04:53:22.080Z,-0.27
2023-12-11T04:56:25.614Z,-0.40
2023-12-11T04:59:29.387Z,-0.32
2023-12-11T05:02:34.934Z,-0.47
2023-12-11T05:05:42.654Z,-0.48
2023-12-11T05:08:47.369Z,-0.38
2023-12-11T05:11:53.036Z,-0.50
2023-12-11T05:14:56.756Z,-0.56
2023-12-11T05:18:00.962Z,-0.50
2023-12-11T05:21:10.415Z,-0.49
2023-12-11T05:24:19.958Z,-0.48
2023-12-11T05:27:25.950Z,-0.51
2023-12-11T05:30:30.341Z,-0.49
2023-12-11T05:33:33.963Z,-0.50
2023-12-11T05:36:37.831Z,-0.41
2023-12-11T05:39:47.349Z,-0.46
2023-12-11T05:43:02.068Z,-0.46
2023-12-11T05:46:10.234Z,-0.45
2023-12-11T05:49:13.759Z,-0.33
2023-12-11T05:52:16.317Z,-0.23
2023-12-11T05:55:20.999Z,-0.03
2023-12-11T05:58:24.691Z,-0.15
2023-12-11T06:01:28.657Z,-0.06
2023-12-11T06:04:38.211Z,-0.11
2023-12-11T06:07:43.170Z,-0.21
2023-12-11T06:10:46.866Z,-0.28
2023-12-11T06:13:51.888Z,-0.33
2023-12-11T06:16:59.876Z,-0.26
2023-12-11T06:20:22.837Z,-0.27
2023-12-11T06:23:29.543Z,-0.24
2023-12-11T06:26:35.453Z,-0.23
2023-12-11T06:29:40.255Z,-0.22
2023-12-11T06:32:47.255Z,-0.14
2023-12-11T06:35:50.932Z,-0.12
2023-12-11T06:38:57.099Z,-0.11
2023-12-11T06:42:22.463Z,0.00
2023-12-11T06:45:25.322Z,0.14
2023-12-11T06:48:32.894Z,0.19
2023-12-11T06:51:40.068Z,0.25
2023-12-11T06:55:15.625Z,0.27
2023-12-11T06:58:22.265Z,0.39
2023-12-11T07:01:32.254Z,0.38
2023-12-11T07:04:36.733Z,0.32
2023-12-11T07:07:41.357Z,0.41
2023-12-11T07:10:47.561Z,0.49
2023-12-11T07:14:24.974Z,0.53
2023-12-11T07:17:34.379Z,0.46
2023-12-11T07:20:43.618Z,0.58
2023-12-11T07:23:49.899Z,0.56
2023-12-11T07:27:25.640Z,0.49
2023-12-11T07:30:30.957Z,0.32
2023-12-11T07:33:34.905Z,0.58
2023-12-11T07:36:39.898Z,0.60
2023-12-11T07:40:04.156Z,0.66
2023-12-11T07:43:09.478Z,0.63
2023-12-11T07:46:23.233Z,0.59
2023-12-11T07:49:27.796Z,0.58
2023-12-11T07:52:32.083Z,0.68
2023-12-11T07:55:37.230Z,0.67
2023-12-11T07:58:44.017Z,0.78
2023-12-11T08:02:16.748Z,0.86
2023-12-11T08:05:46.332Z,1.13
2023-12-11T08:09:29.401Z,0.96
2023-12-11T08:13:04.755Z,1.06
2023-12-11T08:16:41.013Z,0.86
2023-12-11T08:20:13.255Z,0.85
2023-12-11T08:23:45.490Z,1.16
2023-12-11T08:27:20.501Z,1.00
2023-12-11T08:30:57.817Z,1.29
2023-12-11T08:34:38.800Z,1.26
2023-12-11T08:38:18.444Z,1.44
2023-12-11T08:41:52.491Z,1.51
2023-12-11T08:45:27.753Z,1.54
2023-12-11T08:48:57.056Z,1.49
2023-12-11T08:52:13.819Z,1.43
2023-12-11T08:55:34.176Z,1.57
2023-12-11T08:59:13.006Z,1.45
2023-12-11T09:02:55.462Z,1.35
2023-12-11T09:06:25.749Z,1.44
2023-12-11T09:09:59.160Z,1.61
2023-12-11T09:13:29.638Z,1.76
2023-12-11T09:16:57.407Z,1.89
2023-12-11T09:20:31.118Z,1.88
2023-12-11T09:23:47.394Z,1.97
2023-12-11T09:27:37.204Z,1.69
2023-12-11T09:31:00.859Z,1.89
2023-12-11T09:34:40.205Z,1.84
2023-12-11T09:37:47.885Z,1.57
2023-12-11T09:41:15.601Z,1.55
2023-12-11T09:44:49.154Z,1.51
2023-12-11T09:48:15.298Z,1.57
2023-12-11T09:51:47.108Z,1.62
2023-12-11T09:55:07.967Z,1.87
2023-12-11T09:58:50.906Z,2.17
2023-12-11T10:02:19.836Z,2.27
2023-12-11T10:06:18.122Z,2.44
2023-12-11T10:09:50.297Z,2.53
2023-12-11T10:12:56.330Z,2.24
2023-12-11T10:16:37.182Z,2.24
2023-12-11T10:20:20.177Z,2.24
2023-12-11T10:23:48.542Z,2.25
2023-12-11T10:27:47.081Z,2.21
2023-12-11T10:30:57.948Z,2.44
2023-12-11T10:34:06.912Z,2.37
2023-12-11T10:37:15.580Z,2.25
2023-12-11T10:40:22.115Z,2.57
2023-12-11T10:43:55.358Z,2.73
2023-12-11T10:47:04.429Z,2.53
2023-12-11T10:50:11.295Z,2.78
2023-12-11T10:53:17.189Z,2.84
2023-12-11T10:56:20.497Z,2.98
2023-12-11T10:59:25.711Z,3.05
2023-12-11T11:02:38.574Z,2.99
2023-12-11T11:05:42.782Z,2.93
2023-12-11T11:08:56.283Z,2.76
2023-12-11T11:12:57.539Z,2.87
2023-12-11T11:16:04.940Z,3.02
2023-12-11T11:19:10.897Z,3.41
2023-12-11T11:22:27.356Z,3.73
2023-12-11T11:25:40.686Z,4.03
2023-12-11T11:28:52.279Z,4.53
2023-12-11T11:32:19.269Z,4.07
2023-12-11T11:35:51.684Z,4.21
2023-12-11T11:38:58.296Z,4.29
2023-12-11T11:42:09.100Z,3.85
2023-12-11T11:45:32.481Z,3.71
2023-12-11T11:48:43.242Z,3.88
2023-12-11T11:51:48.243Z,3.88
2023-12-11T11:54:53.383Z,4.00
2023-12-11T11:58:15.700Z,4.14
2023-12-11T12:01:19.137Z,4.27
2023-12-11T12:04:30.835Z,4.03
2023-12-11T12:07:40.635Z,4.23
2023-12-11T12:10:47.715Z,4.04
2023-12-11T12:13:50.791Z,3.88
2023-12-11T12:16:55.110Z,3.71
2023-12-11T12:20:00.202Z,3.78
2023-12-11T12:23:08.343Z,3.81
2023-12-11T12:26:11.385Z,3.88
2023-12-11T12:29:17.794Z,3.87
2023-12-11T12:32:40.899Z,3.88
2023-12-11T12:35:46.121Z,3.81
2023-12-11T12:38:51.536Z,3.93
2023-12-11T12:41:57.660Z,3.92
2023-12-11T12:45:01.771Z,3.99
2023-12-11T12:48:06.741Z,3.88
2023-12-11T12:51:16.146Z,4.14
2023-12-11T12:54:23.051Z,4.20
2023-12-11T12:57:37.830Z,4.60
2023-12-11T13:00:43.865Z,4.56
2023-12-11T13:03:49.595Z,5.02
2023-12-11T13:06:53.256Z,4.84
2023-12-11T13:10:19.202Z,4.71
2023-12-11T13:13:29.279Z,4.33
2023-12-11T13:16:33.172Z,4.19
2023-12-11T13:19:40.897Z,4.18
2023-12-11T13:22:43.878Z,3.86
2023-12-11T13:25:51.552Z,3.68
2023-12-11T13:28:55.911Z,3.47
2023-12-11T13:31:59.729Z,3.79
2023-12-11T13:35:05.849Z,3.68
2023-12-11T13:38:30.475Z,3.57
2023-12-11T13:41:38.497Z,3.62
2023-12-11T13:44:45.439Z,3.99
2023-12-11T13:48:32.364Z,3.77
2023-12-11T13:51:36.625Z,3.50
2023-12-11T13:55:19.424Z,3.49
2023-12-11T13:58:23.999Z,3.35
2023-12-11T14:01:33.310Z,3.27
2023-12-11T14:04:41.761Z,3.43
2023-12-11T14:08:19.073Z,3.16
2023-12-11T14:11:57.455Z,2.95
2023-12-11T14:15:02.334Z,2.91
2023-12-11T14:18:31.407Z,2.70
2023-12-11T14:21:36.687Z,2.63
2023-12-11T14:24:59.661Z,2.57
2023-12-11T14:28:06.506Z,2.45
2023-12-11T14:31:13.142Z,2.25
2023-12-11T14:34:42.878Z,2.17
2023-12-11T14:38:19.135Z,2.08
2023-12-11T14:41:47.798Z,1.98
2023-12-11T14:44:59.068Z,1.85
2023-12-11T14:48:05.005Z,1.91
2023-12-11T14:51:08.455Z,1.94
2023-12-11T14:54:12.797Z,1.75
2023-12-11T14:57:21.229Z,1.69
2023-12-11T15:00:47.604Z,1.66
2023-12-11T15:03:54.070Z,1.73
2023-12-11T15:07:18.240Z,1.56
2023-12-11T15:10:25.436Z,1.44
2023-12-11T15:13:32.999Z,1.42
2023-12-11T15:16:46.201Z,1.31
2023-12-11T15:20:27.980Z,1.28
2023-12-11T15:23:34.427Z,1.16
2023-12-11T15:27:06.806Z,1.12
2023-12-11T15:30:29.831Z,1.22
2023-12-11T15:33:33.087Z,1.19
2023-12-11T15:36:45.754Z,1.28
2023-12-11T15:39:51.809Z,1.36
2023-12-11T15:43:16.987Z,1.29
2023-12-11T15:46:21.151Z,1.39
2023-12-11T15:49:49.014Z,1.34
2023-12-11T15:52:58.677Z,1.37
2023-12-11T15:56:03.853Z,1.36
2023-12-11T16:00:06.735Z,1.54
2023-12-11T16:03:14.392Z,1.42
2023-12-11T16:10:28.032Z,1.51
2023-12-11T16:13:37.259Z,1.52
2023-12-11T16:16:43.809Z,1.55
2023-12-11T16:19:51.170Z,1.54
2023-12-11T16:22:54.859Z,1.59
2023-12-11T16:26:03.396Z,1.58
2023-12-11T16:29:36.014Z,1.63
2023-12-11T16:32:41.704Z,1.65
2023-12-11T16:35:45.043Z,1.62
2023-12-11T16:38:48.627Z,1.58
2023-12-11T16:41:53.152Z,1.61
2023-12-11T16:45:01.534Z,1.62
2023-12-11T16:48:37.720Z,1.59
2023-12-11T16:51:41.785Z,1.57
2023-12-11T16:54:44.875Z,1.58
2023-12-11T16:57:49.396Z,1.55
2023-12-11T17:00:52.160Z,1.55
2023-12-11T17:03:57.149Z,1.56
2023-12-11T17:07:02.555Z,1.56
2023-12-11T17:10:08.415Z,1.52
2023-12-11T17:13:12.206Z,1.47
2023-12-11T17:16:18.039Z,1.41
2023-12-11T17:19:21.660Z,1.45
2023-12-11T17:22:29.709Z,1.43
2023-12-11T17:25:34.775Z,1.43
2023-12-11T17:28:38.872Z,1.48
2023-12-11T17:31:43.672Z,1.52
2023-12-11T17:34:49.973Z,1.43
2023-12-11T17:37:52.677Z,1.45
2023-12-11T17:40:56.336Z,1.33
2023-12-11T17:44:00.051Z,1.35
2023-12-11T17:47:05.253Z,1.34
2023-12-11T17:50:15.676Z,1.44
2023-12-11T17:53:18.908Z,1.49
2023-12-11T17:56:24.466Z,1.37
2023-12-11T17:59:30.603Z,1.37
2023-12-11T18:02:36.651Z,1.35
2023-12-11T18:05:40.660Z,1.34
2023-12-11T18:08:48.683Z,1.28
2023-12-11T18:11:52.015Z,1.28
2023-12-11T18:14:55.122Z,1.31
2023-12-11T18:17:58.530Z,1.29
2023-12-11T18:21:05.763Z,1.37
2023-12-11T18:24:09.127Z,1.27
2023-12-11T18:27:35.946Z,1.25
2023-12-11T18:30:39.514Z,1.26
2023-12-11T18:33:45.801Z,1.12
2023-12-11T18:36:51.561Z,1.02
2023-12-11T18:39:56.717Z,0.96
2023-12-11T18:43:00.036Z,0.91
2023-12-11T18:46:03.624Z,0.93
2023-12-11T18:49:13.793Z,0.96
2023-12-11T18:52:46.871Z,1.02
2023-12-11T18:56:00.311Z,1.07
2023-12-11T18:59:03.617Z,1.08
2023-12-11T19:02:29.712Z,1.15
2023-12-11T19:05:55.472Z,1.15
2023-12-11T19:09:00.610Z,1.16
2023-12-11T19:12:05.614Z,1.17
2023-12-11T19:15:10.459Z,1.20
2023-12-11T19:18:18.967Z,1.19
2023-12-11T19:21:42.959Z,1.17
2023-12-11T19:24:46.177Z,1.20
2023-12-11T19:27:50.545Z,1.18
2023-12-11T19:30:53.576Z,1.17
2023-12-11T19:34:00.080Z,1.17
2023-12-11T19:37:05.745Z,1.23
2023-12-11T19:40:10.521Z,1.13
2023-12-11T19:43:16.751Z,1.03
2023-12-11T19:46:25.912Z,0.88
2023-12-11T19:49:33.440Z,0.83
2023-12-11T19:52:36.971Z,0.75
2023-12-11T19:55:41.465Z,0.71
2023-12-11T19:59:08.499Z,0.70
2023-12-11T20:02:12.151Z,0.66
2023-12-11T20:05:35.466Z,0.58
2023-12-11T20:08:40.955Z,0.63
2023-12-11T20:11:45.920Z,0.63
2023-12-11T20:15:27.001Z,0.78
2023-12-11T20:18:30.679Z,0.77
2023-12-11T20:21:33.207Z,0.81
2023-12-11T20:24:36.460Z,0.84
2023-12-11T20:27:41.337Z,0.74
2023-12-11T20:30:45.303Z,0.75
2023-12-11T20:33:51.812Z,0.72
2023-12-11T20:36:55.691Z,0.74
2023-12-11T20:39:59.064Z,0.75
2023-12-11T20:43:24.935Z,0.79
2023-12-11T20:46:32.769Z,0.73
2023-12-11T20:49:43.826Z,0.78
2023-12-11T20:53:10.611Z,0.77
2023-12-11T20:56:24.982Z,0.73
2023-12-11T20:59:48.637Z,0.77
2023-12-11T21:02:54.075Z,0.89
2023-12-11T21:06:01.981Z,0.98
2023-12-11T21:09:18.255Z,1.19
2023-12-11T21:12:22.016Z,0.99
2023-12-11T21:15:47.423Z,0.99
2023-12-11T21:19:20.336Z,0.89
2023-12-11T21:22:31.083Z,0.83
2023-12-11T21:25:33.966Z,0.73
2023-12-11T21:28:37.761Z,0.63
2023-12-11T21:31:43.354Z,0.63
2023-12-11T21:34:49.337Z,0.54
2023-12-11T21:37:57.145Z,0.53
2023-12-11T21:41:00.360Z,0.57
2023-12-11T21:44:04.898Z,0.61
2023-12-11T21:47:09.762Z,0.59
2023-12-11T21:50:33.735Z,0.59
2023-12-11T21:53:37.265Z,0.59
2023-12-11T21:56:42.494Z,0.59
2023-12-11T21:59:48.424Z,0.64
2023-12-11T22:03:00.978Z,0.75
2023-12-11T22:06:05.335Z,0.94
2023-12-11T22:09:24.686Z,0.90
2023-12-11T22:12:27.818Z,0.83
2023-12-11T22:15:33.711Z,0.88
2023-12-11T22:18:39.433Z,0.90
2023-12-11T22:21:42.180Z,0.95
2023-12-11T22:24:48.043Z,1.09
2023-12-11T22:27:57.318Z,0.99
2023-12-11T22:31:05.473Z,1.08
2023-12-11T22:34:12.015Z,1.08
2023-12-11T22:37:17.417Z,1.07
2023-12-11T22:40:22.334Z,1.04
2023-12-11T22:43:28.887Z,1.04
2023-12-11T22:46:34.836Z,1.01
2023-12-11T22:49:38.476Z,0.99
2023-12-11T22:52:44.167Z,1.05
2023-12-11T22:55:51.348Z,1.01
2023-12-11T22:58:54.156Z,0.92
2023-12-11T23:02:04.631Z,0.96
2023-12-11T23:05:31.746Z,1.01
2023-12-11T23:08:35.819Z,1.03
2023-12-11T23:11:39.043Z,1.07
2023-12-11T23:14:42.228Z,1.11
2023-12-11T23:17:48.465Z,1.12
2023-12-11T23:20:58.313Z,1.11
2023-12-11T23:24:06.500Z,1.17
2023-12-11T23:27:12.995Z,1.09
2023-12-11T23:30:19.382Z,0.95
2023-12-11T23:33:22.712Z,1.14
2023-12-11T23:36:28.476Z,0.93
2023-12-11T23:40:00.706Z,0.87
2023-12-11T23:43:03.346Z,0.90
2023-12-11T23:46:30.547Z,0.97
2023-12-11T23:49:53.668Z,1.01
2023-12-11T23:52:59.218Z,1.03
2023-12-11T23:56:02.577Z,1.04
2023-12-11T23:59:10.143Z,1.06
